KSDF Airport (Louisville Muhammad Ali Intl) Information

FAA: SDF - ICAO: KSDF

KSDF Airport Location

State Kentucky
County Jefferson
City Louisville
KSDF Airport is 4 miles south of Louisville, KY.
Latitude 38-10-26.7090N
Longitude 085-44-11.3960W
Elevation 500ft

KSDF Airport METARs

METAR KSDF 301856Z 29007KT 10SM BKN250 15/03 A3009 RMK AO2 SLP189 T01500028
Altimeter 30.09"
Temperature 15.0°C (59.0°F)
Wind 290° at 7KT
Clouds broken at 25,000ft
Visibility 10.0mi
Time observed: 2021-11-30T18:56:00Z

KSDF Airport Details

Status Operational
Activation November 1942
Ownership Public
Usage Public
Chart ST LOUIS
ATC on-site Yes
Beacon schedule sunset-sunrise
Beacon color clear green

KSDF Airport Contacts

Owner LOUISVILLE REGIONAL ARPT AUTH
Owner address 700 ADMINISTRATION DRIVE, LOUISVILLE, KY 40209
Owner phone 502-368-6524
Manager MIKE BREDENSTEINER
Manager address 1 SAINT JOSEPH DRIVE, LEXINGTON, KY 40504
Manager phone 859-313-1744

KSDF Airport (Louisville Muhammad Ali Intl) Radio Frequencies

KSDF (Airport) Radio Frequencies

UNICOM 122.95
Common traffic advisory frequency (CTAF) N/A